Time;durP1;ratioP1;P1;durP2;ratioP2;P2;SDS_P1;SDS_P2;PMS_P1;PMS_P2;Temp;Humidity;BMP_temperature;BMP_pressure;BME280_temperature;BME280_humidity;BME280_pressure;Samples;Min_cycle;Max_cycle;Signal;HPM_P1;HPM_P2
2021/05/15 00:01:36;;;;;;;64.38;22.92;;;7.60;97.80;;;;;;4970669;28;20038;-73
2021/05/15 00:04:02;;;;;;;58.08;23.38;;;7.60;97.70;;;;;;4980002;28;20385;-73
2021/05/15 00:06:28;;;;;;;51.28;22.38;;;7.60;97.80;;;;;;4977057;28;20030;-73
2021/05/15 00:08:54;;;;;;;54.20;21.83;;;7.70;97.70;;;;;;4984310;28;20034;-73
2021/05/15 00:11:20;;;;;;;48.00;23.45;;;7.70;97.70;;;;;;4970626;28;20082;-73
2021/05/15 00:13:47;;;;;;;46.60;21.77;;;7.70;97.70;;;;;;4970210;28;20027;-73
2021/05/15 00:16:13;;;;;;;45.97;22.73;;;7.80;97.70;;;;;;4975917;28;20038;-73
2021/05/15 00:18:39;;;;;;;44.67;21.83;;;7.70;97.60;;;;;;4967000;28;20077;-73
2021/05/15 00:21:06;;;;;;;41.28;19.52;;;7.70;97.50;;;;;;4975644;28;20027;-73
2021/05/15 00:23:32;;;;;;;41.72;21.50;;;7.80;97.50;;;;;;4972976;28;20038;-73
2021/05/15 00:25:59;;;;;;;47.88;20.08;;;7.80;97.50;;;;;;4966337;28;20094;-73
2021/05/15 00:28:28;;;;;;;41.58;19.83;;;7.80;97.40;;;;;;4973449;28;20058;-74
2021/05/15 00:30:54;;;;;;;40.78;19.85;;;7.80;97.40;;;;;;4968590;28;20292;-73
2021/05/15 00:33:20;;;;;;;39.15;20.80;;;7.80;97.40;;;;;;4967434;28;20057;-73
2021/05/15 00:35:46;;;;;;;39.13;20.30;;;7.80;97.30;;;;;;4973672;28;20053;-73
2021/05/15 00:38:11;;;;;;;49.05;22.13;;;7.90;97.30;;;;;;4967762;28;20593;-73
2021/05/15 00:40:38;;;;;;;43.05;20.63;;;7.80;97.20;;;;;;4984354;28;20023;-73
2021/05/15 00:43:07;;;;;;;39.95;20.27;;;7.90;97.20;;;;;;4972642;28;20038;-73
2021/05/15 00:45:32;;;;;;;42.38;21.40;;;7.90;97.10;;;;;;4969624;28;20397;-73
2021/05/15 00:47:58;;;;;;;43.60;22.65;;;8.00;97.10;;;;;;4970772;28;20045;-73
2021/05/15 00:50:24;;;;;;;41.28;20.10;;;8.00;97.20;;;;;;4978382;28;20037;-73
2021/05/15 00:52:49;;;;;;;45.13;21.45;;;8.00;97.10;;;;;;4992687;28;20038;-73
2021/05/15 00:55:15;;;;;;;42.60;21.38;;;8.00;97.20;;;;;;4973658;28;20037;-73
2021/05/15 00:57:41;;;;;;;46.63;21.70;;;8.00;97.20;;;;;;4978160;28;20057;-73
2021/05/15 01:00:10;;;;;;;42.17;20.70;;;8.00;97.10;;;;;;4972410;28;20224;-73
2021/05/15 01:02:36;;;;;;;41.72;20.48;;;8.00;97.10;;;;;;4971908;28;20089;-73
2021/05/15 01:05:03;;;;;;;39.55;20.27;;;8.00;97.20;;;;;;4965466;28;20630;-73
2021/05/15 01:07:28;;;;;;;45.20;22.85;;;8.00;97.10;;;;;;4971833;28;20486;-73
2021/05/15 01:09:54;;;;;;;43.90;20.58;;;8.10;97.10;;;;;;4975506;28;20031;-73
2021/05/15 01:12:20;;;;;;;41.47;20.60;;;8.10;97.10;;;;;;4973440;28;20026;-73
2021/05/15 01:14:46;;;;;;;45.03;21.80;;;8.10;97.10;;;;;;4987418;28;20065;-73
2021/05/15 01:17:11;;;;;;;39.08;19.70;;;8.10;97.10;;;;;;4978501;28;20030;-73
2021/05/15 01:19:38;;;;;;;46.50;20.98;;;8.10;97.20;;;;;;4980058;28;20068;-73
2021/05/15 01:22:08;;;;;;;34.40;20.95;;;8.10;97.20;;;;;;4975025;28;20038;-73
2021/05/15 01:24:34;;;;;;;42.15;21.00;;;8.10;97.10;;;;;;4985445;28;20053;-73
2021/05/15 01:27:00;;;;;;;36.92;20.60;;;8.10;97.10;;;;;;4981967;28;20054;-73
2021/05/15 01:29:27;;;;;;;36.70;20.92;;;8.10;97.00;;;;;;4983864;28;20030;-73
2021/05/15 01:31:53;;;;;;;37.35;20.33;;;8.10;97.00;;;;;;4970116;28;20106;-73
2021/05/15 01:34:18;;;;;;;38.00;20.63;;;8.10;97.00;;;;;;4972857;28;20169;-73
2021/05/15 01:36:44;;;;;;;40.75;21.33;;;8.10;96.90;;;;;;4968618;28;20510;-73
2021/05/15 01:39:11;;;;;;;44.15;20.42;;;8.10;96.90;;;;;;4996518;28;20062;-73
2021/05/15 01:41:37;;;;;;;48.00;22.27;;;8.10;96.90;;;;;;4989761;28;20039;-73
2021/05/15 01:44:03;;;;;;;38.15;21.52;;;8.10;96.90;;;;;;4974816;28;20371;-73
2021/05/15 01:46:29;;;;;;;40.45;20.42;;;8.10;97.00;;;;;;4987995;28;20050;-73
2021/05/15 01:48:54;;;;;;;41.15;21.17;;;8.10;97.00;;;;;;4980676;28;20069;-73
2021/05/15 01:51:20;;;;;;;40.25;21.35;;;8.10;97.10;;;;;;4979098;28;20307;-73
2021/05/15 01:53:48;;;;;;;37.03;22.13;;;8.10;97.10;;;;;;4973211;28;20034;-71
2021/05/15 01:56:16;;;;;;;41.50;22.70;;;8.10;97.10;;;;;;4970745;28;20546;-71
2021/05/15 01:58:43;;;;;;;35.08;20.00;;;8.10;97.10;;;;;;4974134;28;20046;-71
2021/05/15 02:01:08;;;;;;;38.78;21.02;;;8.10;97.00;;;;;;4967816;28;20030;-71
2021/05/15 02:03:36;;;;;;;38.20;20.92;;;8.10;97.00;;;;;;4982982;28;20479;-72
2021/05/15 02:06:01;;;;;;;48.08;22.02;;;8.10;96.90;;;;;;4980522;28;20386;-71
2021/05/15 02:08:27;;;;;;;43.20;20.77;;;8.10;96.90;;;;;;4978655;28;20105;-71
2021/05/15 02:10:53;;;;;;;35.33;19.75;;;8.10;96.90;;;;;;4979579;28;20026;-71
2021/05/15 02:13:19;;;;;;;35.45;20.77;;;8.10;97.00;;;;;;4971850;28;20061;-72
2021/05/15 02:15:47;;;;;;;36.83;21.45;;;8.10;96.90;;;;;;4989162;28;20498;-71
2021/05/15 02:18:13;;;;;;;38.25;22.63;;;8.10;96.80;;;;;;4983621;28;20042;-71
2021/05/15 02:20:41;;;;;;;39.17;20.77;;;8.20;96.90;;;;;;5003321;28;20029;-71
2021/05/15 02:23:09;;;;;;;39.03;21.92;;;8.10;96.70;;;;;;4985572;28;20177;-71
2021/05/15 02:25:35;;;;;;;34.55;19.77;;;8.20;96.70;;;;;;4988105;28;20158;-71
2021/05/15 02:28:00;;;;;;;41.05;19.88;;;8.20;96.60;;;;;;4987621;28;20113;-71
2021/05/15 02:30:28;;;;;;;38.25;21.10;;;8.20;96.60;;;;;;4974616;28;20023;-72
2021/05/15 02:32:53;;;;;;;32.85;20.13;;;8.10;96.50;;;;;;4976683;28;20036;-72
2021/05/15 02:35:19;;;;;;;34.50;20.77;;;8.10;96.40;;;;;;4986266;28;20026;-72
2021/05/15 02:37:47;;;;;;;33.65;18.85;;;8.10;96.40;;;;;;4984385;28;20038;-72
2021/05/15 02:40:13;;;;;;;36.67;19.67;;;8.10;96.40;;;;;;4973063;28;20499;-72
2021/05/15 02:42:39;;;;;;;32.92;20.52;;;8.10;96.50;;;;;;4981489;28;20026;-72
2021/05/15 02:45:08;;;;;;;40.28;20.05;;;8.20;96.50;;;;;;4983712;28;20041;-72
2021/05/15 02:47:34;;;;;;;42.42;20.83;;;8.20;96.50;;;;;;4978058;28;20482;-74
2021/05/15 02:50:00;;;;;;;42.15;21.23;;;8.20;96.50;;;;;;4981478;28;20053;-72
2021/05/15 02:52:25;;;;;;;36.50;20.65;;;8.10;96.40;;;;;;4973521;28;20027;-71
2021/05/15 02:54:51;;;;;;;44.92;21.40;;;8.20;96.60;;;;;;4979603;28;20113;-72
2021/05/15 02:57:17;;;;;;;37.90;19.10;;;8.10;96.60;;;;;;5000622;28;20037;-72
2021/05/15 02:59:42;;;;;;;32.47;19.77;;;8.20;96.70;;;;;;4982044;28;20152;-72
2021/05/15 03:02:08;;;;;;;35.25;20.25;;;8.10;96.70;;;;;;4985142;28;20054;-72
2021/05/15 03:04:34;;;;;;;35.47;19.70;;;8.20;96.70;;;;;;4981174;28;20113;-72
2021/05/15 03:07:00;;;;;;;38.83;20.33;;;8.20;96.70;;;;;;4993010;28;20430;-72
2021/05/15 03:09:25;;;;;;;41.40;19.85;;;8.10;96.70;;;;;;4974281;28;20031;-72
2021/05/15 03:11:51;;;;;;;35.80;19.05;;;8.20;96.70;;;;;;4979760;28;20122;-72
2021/05/15 03:14:17;;;;;;;35.63;18.58;;;8.10;96.60;;;;;;4984532;28;20030;-72
2021/05/15 03:16:42;;;;;;;35.50;19.67;;;8.10;96.70;;;;;;4999564;28;20491;-72
2021/05/15 03:19:08;;;;;;;39.50;19.83;;;8.10;96.70;;;;;;4987434;28;20034;-72
2021/05/15 03:21:34;;;;;;;34.17;20.20;;;8.10;96.60;;;;;;4986374;28;20479;-72
2021/05/15 03:23:59;;;;;;;38.22;18.88;;;8.10;96.60;;;;;;4992762;28;20026;-72
2021/05/15 03:26:25;;;;;;;32.97;19.30;;;8.10;96.50;;;;;;4975600;28;20073;-73
2021/05/15 03:28:51;;;;;;;34.75;19.50;;;8.10;96.60;;;;;;4973493;28;20022;-72
2021/05/15 03:31:16;;;;;;;36.42;18.60;;;8.10;96.50;;;;;;4969496;28;20038;-72
2021/05/15 03:33:42;;;;;;;33.25;18.80;;;8.20;96.60;;;;;;4988005;28;20042;-72
2021/05/15 03:36:09;;;;;;;34.00;18.88;;;8.20;96.60;;;;;;4985849;28;20038;-73
2021/05/15 03:38:34;;;;;;;34.35;19.77;;;8.20;96.70;;;;;;4979123;28;20053;-72
2021/05/15 03:41:00;;;;;;;33.53;19.75;;;8.20;96.70;;;;;;4975621;28;20026;-72
2021/05/15 03:43:26;;;;;;;37.88;19.15;;;8.20;96.70;;;;;;4980079;28;20038;-72
2021/05/15 03:45:52;;;;;;;32.38;18.23;;;8.20;96.70;;;;;;4981482;28;20066;-72
2021/05/15 03:48:20;;;;;;;34.78;19.23;;;8.20;96.60;;;;;;4978419;28;20270;-72
2021/05/15 03:50:50;;;;;;;36.58;19.65;;;8.20;96.50;;;;;;4984299;28;20443;-72
2021/05/15 03:53:16;;;;;;;35.10;19.90;;;8.20;96.50;;;;;;4975414;28;20023;-72
2021/05/15 03:55:42;;;;;;;33.22;19.25;;;8.20;96.40;;;;;;4985760;28;20093;-73
2021/05/15 03:58:08;;;;;;;37.90;19.52;;;8.20;96.30;;;;;;4990380;28;20042;-72
2021/05/15 04:00:34;;;;;;;29.13;18.38;;;8.30;96.30;;;;;;4979191;28;20187;-72
2021/05/15 04:03:00;;;;;;;37.05;18.35;;;8.30;96.30;;;;;;4974364;28;20034;-72
2021/05/15 04:05:25;;;;;;;34.53;18.85;;;8.30;96.40;;;;;;4994499;28;20364;-72
2021/05/15 04:07:51;;;;;;;36.78;18.35;;;8.30;96.50;;;;;;4976300;28;20688;-72
2021/05/15 04:10:17;;;;;;;37.45;19.63;;;8.40;96.50;;;;;;4977584;28;20041;-73
2021/05/15 04:13:01;;;;;;;33.97;18.38;;;8.30;96.40;;;;;;4976046;28;20113;-72
2021/05/15 04:17:55;;;;;;;27.80;17.65;;;8.40;96.40;;;;;;4989874;28;20492;-73
2021/05/15 04:20:20;;;;;;;27.02;18.08;;;8.40;96.30;;;;;;4974796;28;20121;-72
2021/05/15 04:22:46;;;;;;;31.73;17.63;;;8.30;96.20;;;;;;4980005;28;20434;-64
2021/05/15 04:25:12;;;;;;;34.58;17.42;;;8.30;96.20;;;;;;4977250;28;20157;-64
2021/05/15 04:27:37;;;;;;;29.38;17.10;;;8.30;95.90;;;;;;4977579;28;20045;-63
2021/05/15 04:30:04;;;;;;;33.28;17.83;;;8.40;95.90;;;;;;4982557;28;22400;-65
2021/05/15 04:32:29;;;;;;;35.15;17.60;;;8.50;95.80;;;;;;4973453;28;20026;-64
2021/05/15 04:34:55;;;;;;;27.80;16.13;;;8.40;95.50;;;;;;4980548;28;20514;-64
2021/05/15 04:37:20;;;;;;;25.85;15.18;;;8.40;95.30;;;;;;4985389;28;20110;-63
2021/05/15 04:39:46;;;;;;;30.75;15.65;;;8.50;95.20;;;;;;4985081;28;20793;-63
2021/05/15 04:42:12;;;;;;;28.17;15.65;;;8.40;94.90;;;;;;5003562;23;20027;-65
2021/05/15 04:44:37;;;;;;;25.23;15.77;;;8.50;95.00;;;;;;4978651;28;20038;-70
2021/05/15 04:47:03;;;;;;;29.88;16.85;;;8.60;95.00;;;;;;4977217;28;20026;-68
2021/05/15 04:49:28;;;;;;;31.17;16.23;;;8.60;95.10;;;;;;4982040;28;20026;-68
2021/05/15 04:51:54;;;;;;;28.10;16.33;;;8.60;95.00;;;;;;4979956;28;20133;-69
2021/05/15 04:54:19;;;;;;;24.70;15.88;;;8.60;94.80;;;;;;4981771;28;20438;-68
2021/05/15 04:56:45;;;;;;;24.85;14.90;;;8.50;94.70;;;;;;4980466;28;20030;-68
2021/05/15 04:59:11;;;;;;;23.30;13.57;;;8.60;94.80;;;;;;4977601;28;20173;-68
2021/05/15 05:01:36;;;;;;;29.63;15.02;;;8.60;94.70;;;;;;4981432;28;20105;-67
2021/05/15 05:04:03;;;;;;;30.75;16.05;;;8.60;94.40;;;;;;4977391;28;20074;-68
2021/05/15 05:06:29;;;;;;;25.85;16.25;;;8.60;94.50;;;;;;4979586;28;20512;-68
2021/05/15 05:08:55;;;;;;;26.17;17.27;;;8.60;94.40;;;;;;4978839;28;20057;-71
2021/05/15 05:11:20;;;;;;;23.52;15.82;;;8.60;94.50;;;;;;4975344;28;20026;-67
2021/05/15 05:13:46;;;;;;;31.15;17.25;;;8.60;94.80;;;;;;4974255;28;20030;-68
2021/05/15 05:16:11;;;;;;;29.42;18.13;;;8.70;94.80;;;;;;4983496;28;20041;-68
2021/05/15 05:18:37;;;;;;;32.88;18.40;;;8.80;95.00;;;;;;4975784;28;20113;-67
2021/05/15 05:21:03;;;;;;;31.73;18.80;;;8.80;94.90;;;;;;4979821;28;20026;-69
2021/05/15 05:23:29;;;;;;;35.88;18.40;;;8.70;94.70;;;;;;4985046;28;20022;-68
2021/05/15 05:25:54;;;;;;;30.40;18.83;;;8.80;94.50;;;;;;4981169;28;20042;-68
2021/05/15 05:28:24;;;;;;;34.97;19.08;;;8.80;94.60;;;;;;4977530;28;20117;-68
2021/05/15 05:30:50;;;;;;;35.42;19.15;;;8.80;94.60;;;;;;4979543;28;20026;-67
2021/05/15 05:33:15;;;;;;;35.63;19.35;;;8.90;94.70;;;;;;4978407;28;20538;-67
2021/05/15 05:35:41;;;;;;;33.95;19.55;;;8.80;94.50;;;;;;4978181;28;20431;-68
2021/05/15 05:38:07;;;;;;;35.38;18.98;;;8.90;94.20;;;;;;4980872;28;20035;-67
2021/05/15 05:40:32;;;;;;;38.22;20.40;;;9.00;94.40;;;;;;4978371;28;20084;-69
2021/05/15 05:42:58;;;;;;;36.63;20.50;;;9.10;94.40;;;;;;4980634;28;20061;-68
2021/05/15 05:45:23;;;;;;;33.90;18.33;;;9.10;93.80;;;;;;4980922;28;20061;-69
2021/05/15 05:47:49;;;;;;;36.78;19.90;;;9.00;93.10;;;;;;4980477;28;20050;-68
2021/05/15 05:50:15;;;;;;;37.33;20.45;;;9.10;93.00;;;;;;4985564;28;20077;-69
2021/05/15 05:52:40;;;;;;;39.10;21.33;;;9.10;93.00;;;;;;4989934;28;20039;-67
2021/05/15 05:55:07;;;;;;;41.28;19.55;;;9.10;93.10;;;;;;4981977;28;20511;-68
2021/05/15 05:57:33;;;;;;;39.03;20.83;;;9.30;93.20;;;;;;4979097;28;20473;-68
2021/05/15 05:59:59;;;;;;;34.17;19.13;;;9.30;92.50;;;;;;4977056;28;20096;-68
2021/05/15 06:02:25;;;;;;;38.25;20.38;;;9.40;92.60;;;;;;4983106;28;20338;-68
2021/05/15 06:04:50;;;;;;;36.00;19.23;;;9.40;92.80;;;;;;4977673;28;20095;-67
2021/05/15 06:07:16;;;;;;;44.67;19.30;;;9.30;91.60;;;;;;4980357;28;20022;-68
2021/05/15 06:09:42;;;;;;;39.13;18.08;;;9.50;92.10;;;;;;4977349;28;20530;-69
2021/05/15 06:12:10;;;;;;;36.03;19.63;;;9.40;91.40;;;;;;4981095;28;20042;-67
2021/05/15 06:14:37;;;;;;;34.00;18.27;;;9.50;91.90;;;;;;4978292;28;20516;-67
2021/05/15 06:17:03;;;;;;;35.97;19.30;;;9.50;91.40;;;;;;4979125;28;20118;-68
2021/05/15 06:19:29;;;;;;;37.40;20.00;;;9.50;91.10;;;;;;4976949;28;20348;-67
2021/05/15 06:21:55;;;;;;;29.67;18.85;;;9.50;91.30;;;;;;4980128;28;20672;-69
2021/05/15 06:24:21;;;;;;;36.90;18.15;;;9.60;91.30;;;;;;4988697;28;20190;-70
2021/05/15 06:26:46;;;;;;;37.38;19.33;;;9.70;91.30;;;;;;4978335;28;20034;-67
2021/05/15 06:29:12;;;;;;;32.13;18.45;;;9.60;90.80;;;;;;4977011;28;20413;-67
2021/05/15 06:31:37;;;;;;;35.88;18.05;;;9.60;90.90;;;;;;4973252;28;20032;-68
2021/05/15 06:34:03;;;;;;;30.98;18.08;;;9.70;90.70;;;;;;4978805;28;20094;-68
2021/05/15 06:36:29;;;;;;;35.65;17.98;;;9.70;90.10;;;;;;4980904;28;20121;-70
2021/05/15 06:38:54;;;;;;;36.05;18.90;;;9.70;89.90;;;;;;4980862;28;20560;-70
2021/05/15 06:41:20;;;;;;;29.58;17.02;;;9.80;90.20;;;;;;4980347;28;20026;-68
2021/05/15 06:43:47;;;;;;;32.35;18.27;;;9.80;90.10;;;;;;4983754;28;20106;-69
2021/05/15 06:46:12;;;;;;;32.45;18.88;;;9.80;89.90;;;;;;4976538;28;20018;-70
2021/05/15 06:48:38;;;;;;;38.72;20.58;;;9.70;90.70;;;;;;4977625;28;20048;-69
2021/05/15 06:51:04;;;;;;;34.65;19.50;;;9.70;90.80;;;;;;4979891;28;20053;-70
2021/05/15 06:53:29;;;;;;;39.25;19.10;;;9.60;90.60;;;;;;4995457;28;20082;-68
2021/05/15 06:55:55;;;;;;;36.55;19.52;;;9.60;90.60;;;;;;4979158;28;20426;-71
2021/05/15 06:58:21;;;;;;;38.33;20.90;;;9.60;90.30;;;;;;4974250;28;20226;-68
2021/05/15 07:00:46;;;;;;;36.75;18.70;;;9.70;90.60;;;;;;4980142;28;20042;-73
2021/05/15 07:03:12;;;;;;;33.53;19.58;;;9.80;90.40;;;;;;4985605;28;20137;-68
2021/05/15 07:05:37;;;;;;;34.97;20.25;;;9.80;90.60;;;;;;4980985;28;20061;-70
2021/05/15 07:08:03;;;;;;;39.67;18.85;;;10.00;90.40;;;;;;4983482;28;20053;-68
2021/05/15 07:10:29;;;;;;;38.70;20.40;;;10.10;90.00;;;;;;4981528;28;20050;-69
2021/05/15 07:12:55;;;;;;;38.55;19.02;;;10.10;89.10;;;;;;4977506;28;20034;-68
2021/05/15 07:15:21;;;;;;;34.10;18.77;;;10.20;88.40;;;;;;4981544;28;20141;-68
2021/05/15 07:17:47;;;;;;;36.63;18.83;;;10.40;89.20;;;;;;4982038;28;20026;-69
2021/05/15 07:20:14;;;;;;;35.25;19.98;;;10.30;88.30;;;;;;4984293;28;20041;-69
2021/05/15 07:22:42;;;;;;;38.83;19.42;;;10.50;89.70;;;;;;4976825;28;20474;-68
2021/05/15 07:25:08;;;;;;;42.78;21.25;;;10.50;89.40;;;;;;4974033;28;20150;-69
2021/05/15 07:27:34;;;;;;;37.97;18.70;;;10.50;88.30;;;;;;4981517;28;20505;-67
2021/05/15 07:30:01;;;;;;;37.80;20.67;;;10.60;89.30;;;;;;4980884;28;20132;-67
2021/05/15 07:32:26;;;;;;;34.30;19.80;;;10.60;88.10;;;;;;4976913;28;20643;-67
2021/05/15 07:34:53;;;;;;;37.30;18.77;;;10.80;89.40;;;;;;4983834;28;20473;-67
2021/05/15 07:37:19;;;;;;;30.13;17.83;;;10.70;87.60;;;;;;4974904;28;20057;-68
2021/05/15 07:39:45;;;;;;;31.15;17.35;;;10.60;87.80;;;;;;4978087;28;20046;-68
2021/05/15 07:42:11;;;;;;;28.90;16.13;;;10.80;88.20;;;;;;4978848;28;20089;-68
2021/05/15 07:44:37;;;;;;;28.50;16.80;;;11.00;87.30;;;;;;4970360;28;20075;-68
2021/05/15 07:47:02;;;;;;;28.45;16.67;;;11.30;86.40;;;;;;4978482;28;20105;-68
2021/05/15 07:49:28;;;;;;;31.50;17.50;;;11.70;86.90;;;;;;4982016;28;20061;-68
2021/05/15 07:51:54;;;;;;;31.08;17.15;;;11.50;86.20;;;;;;4979548;28;20031;-71
2021/05/15 07:54:21;;;;;;;30.80;16.13;;;11.80;86.50;;;;;;4976564;28;20041;-68
2021/05/15 07:56:47;;;;;;;31.75;15.45;;;12.00;85.20;;;;;;4976505;28;20030;-67
2021/05/15 07:59:13;;;;;;;27.95;16.35;;;11.70;82.70;;;;;;4977666;28;20037;-67
2021/05/15 08:01:39;;;;;;;32.03;16.48;;;11.60;84.30;;;;;;4977509;28;20559;-68
2021/05/15 08:04:05;;;;;;;26.33;15.05;;;11.80;83.60;;;;;;4978032;28;20366;-68
2021/05/15 08:06:30;;;;;;;29.63;15.98;;;11.60;84.70;;;;;;4981671;28;20060;-68
2021/05/15 08:08:56;;;;;;;30.95;16.10;;;11.70;84.10;;;;;;4976129;28;20027;-69
2021/05/15 08:11:22;;;;;;;30.48;16.20;;;11.80;82.40;;;;;;4977104;28;20023;-68
2021/05/15 08:13:48;;;;;;;26.55;15.50;;;11.90;85.20;;;;;;4977832;28;20106;-68
2021/05/15 08:16:14;;;;;;;28.30;15.40;;;12.00;83.10;;;;;;4978615;28;20026;-67
2021/05/15 08:18:41;;;;;;;32.92;16.08;;;11.80;83.40;;;;;;4980666;28;20057;-69
2021/05/15 08:21:08;;;;;;;27.60;15.95;;;12.20;85.20;;;;;;4975095;28;20027;-70
2021/05/15 08:23:37;;;;;;;27.38;16.08;;;12.20;83.80;;;;;;4978980;28;20030;-70
2021/05/15 08:26:08;;;;;;;35.50;16.63;;;12.40;82.70;;;;;;4978152;28;20617;-68
2021/05/15 08:28:34;;;;;;;34.53;17.45;;;12.10;82.00;;;;;;4975688;28;20094;-68
2021/05/15 08:31:01;;;;;;;29.05;15.55;;;12.20;83.10;;;;;;4975166;28;20034;-68
2021/05/15 08:33:27;;;;;;;32.72;16.63;;;12.30;81.80;;;;;;4979561;28;20393;-68
2021/05/15 08:35:52;;;;;;;32.08;16.48;;;12.70;82.40;;;;;;4979911;28;20058;-69
2021/05/15 08:38:18;;;;;;;26.02;15.55;;;12.70;81.60;;;;;;4978396;28;20026;-69
2021/05/15 08:40:44;;;;;;;27.73;15.98;;;12.70;80.70;;;;;;4977675;28;20491;-69
2021/05/15 08:43:12;;;;;;;27.23;14.77;;;12.60;82.10;;;;;;4979073;28;20058;-69
2021/05/15 08:45:38;;;;;;;29.17;16.08;;;12.10;80.40;;;;;;4982182;28;20404;-67
2021/05/15 08:48:05;;;;;;;28.42;15.30;;;12.20;81.30;;;;;;4977033;28;20444;-70
2021/05/15 08:50:32;;;;;;;28.08;15.23;;;12.50;83.10;;;;;;4978524;28;20029;-71
2021/05/15 08:52:59;;;;;;;28.42;15.63;;;12.50;83.80;;;;;;4976057;28;20088;-67
2021/05/15 08:55:29;;;;;;;27.65;16.45;;;12.60;83.00;;;;;;4980417;28;20105;-67
2021/05/15 08:58:00;;;;;;;25.63;14.90;;;12.90;83.00;;;;;;4981327;28;20026;-68
2021/05/15 09:00:25;;;;;;;28.00;15.65;;;13.10;82.20;;;;;;4983786;28;20075;-69
2021/05/15 09:02:54;;;;;;;27.85;14.95;;;12.90;80.60;;;;;;4980630;28;20034;-67
2021/05/15 09:05:22;;;;;;;21.23;13.32;;;13.10;81.60;;;;;;4978501;28;20046;-69
2021/05/15 09:07:51;;;;;;;20.52;12.52;;;13.00;80.50;;;;;;4978101;28;20033;-68
2021/05/15 09:10:20;;;;;;;20.10;13.27;;;13.00;81.30;;;;;;4977017;28;20106;-70
2021/05/15 09:12:46;;;;;;;22.55;12.43;;;13.30;79.90;;;;;;4974386;28;20536;-67
2021/05/15 09:15:12;;;;;;;21.27;12.68;;;13.50;78.80;;;;;;4970507;28;20257;-68
2021/05/15 09:17:45;;;;;;;20.38;12.45;;;13.80;76.30;;;;;;4973463;28;20134;-70
2021/05/15 09:20:25;;;;;;;17.80;11.20;;;13.90;77.60;;;;;;4972642;28;20061;-68
2021/05/15 09:22:51;;;;;;;23.25;12.40;;;14.00;75.10;;;;;;4977809;28;20419;-69
2021/05/15 09:25:18;;;;;;;18.23;11.27;;;14.10;78.10;;;;;;4982535;28;20094;-67
2021/05/15 09:27:43;;;;;;;20.85;12.45;;;13.70;77.30;;;;;;4978761;28;20479;-66
2021/05/15 09:30:10;;;;;;;20.42;12.07;;;14.00;78.80;;;;;;4976999;28;20075;-68
2021/05/15 09:32:36;;;;;;;23.50;12.00;;;14.00;77.20;;;;;;4979209;28;20034;-70
2021/05/15 09:35:04;;;;;;;19.50;10.82;;;14.10;77.10;;;;;;4976033;28;20022;-68
2021/05/15 09:37:39;;;;;;;20.70;12.23;;;14.20;79.10;;;;;;4976155;28;20073;-69
2021/05/15 09:40:11;;;;;;;20.98;11.30;;;14.20;79.10;;;;;;4979084;28;20049;-68
2021/05/15 09:42:48;;;;;;;15.13;10.75;;;14.80;78.30;;;;;;4979212;28;20116;-68
2021/05/15 09:45:28;;;;;;;16.38;11.50;;;14.60;77.10;;;;;;4981593;28;20049;-71
2021/05/15 09:47:59;;;;;;;17.83;10.70;;;14.50;74.40;;;;;;4979852;28;20093;-68
2021/05/15 09:50:28;;;;;;;19.23;10.90;;;15.00;72.80;;;;;;4979221;28;20306;-69
2021/05/15 09:53:11;;;;;;;19.20;11.50;;;15.80;76.60;;;;;;4978782;28;20117;-67
2021/05/15 09:55:38;;;;;;;23.00;11.63;;;15.10;70.90;;;;;;4981558;28;20018;-69
2021/05/15 09:58:06;;;;;;;17.33;11.35;;;16.00;74.20;;;;;;4978962;28;20433;-68
2021/05/15 10:00:46;;;;;;;15.35;10.60;;;15.70;70.10;;;;;;4973592;28;20031;-68
2021/05/15 10:03:18;;;;;;;16.88;10.85;;;15.00;72.90;;;;;;4976121;28;20108;-69
2021/05/15 10:05:44;;;;;;;17.33;10.95;;;15.10;72.40;;;;;;4973276;28;20315;-69
2021/05/15 10:08:09;;;;;;;16.13;10.85;;;15.50;73.10;;;;;;4978486;28;20221;-69
2021/05/15 10:10:36;;;;;;;19.95;11.32;;;15.40;72.90;;;;;;4974818;28;20022;-68
2021/05/15 10:13:02;;;;;;;19.58;11.00;;;15.30;71.60;;;;;;4976358;28;20053;-69
2021/05/15 10:15:27;;;;;;;18.95;10.93;;;15.40;70.80;;;;;;4971269;28;20035;-68
2021/05/15 10:17:53;;;;;;;18.05;10.60;;;16.20;70.90;;;;;;4974883;28;20030;-68
2021/05/15 10:20:19;;;;;;;19.08;11.25;;;16.10;67.90;;;;;;4971966;28;20052;-69
2021/05/15 10:22:45;;;;;;;15.52;10.13;;;16.30;68.80;;;;;;4978097;28;20184;-69
2021/05/15 10:25:13;;;;;;;16.95;10.88;;;16.00;69.80;;;;;;4979013;28;20027;-69
2021/05/15 10:27:39;;;;;;;15.80;10.63;;;16.20;70.00;;;;;;4975129;28;20022;-72
2021/05/15 10:30:22;;;;;;;17.08;10.25;;;16.30;73.00;;;;;;4983067;28;20163;-69
2021/05/15 10:32:53;;;;;;;17.45;9.98;;;16.40;69.40;;;;;;4980177;28;20038;-68
2021/05/15 10:35:31;;;;;;;17.67;10.73;;;16.30;69.50;;;;;;4982006;28;20042;-69
2021/05/15 10:38:20;;;;;;;15.30;9.77;;;15.80;71.30;;;;;;4975372;28;20105;-70
2021/05/15 10:40:49;;;;;;;21.48;11.13;;;16.10;71.80;;;;;;4983597;28;20082;-69
2021/05/15 10:43:30;;;;;;;16.10;10.95;;;15.70;71.40;;;;;;4975911;28;20576;-68
2021/05/15 10:45:56;;;;;;;17.92;9.98;;;15.30;71.30;;;;;;4978870;28;20023;-71
2021/05/15 10:48:26;;;;;;;17.80;10.35;;;15.20;72.10;;;;;;4982399;28;20096;-68
2021/05/15 10:50:57;;;;;;;16.97;10.43;;;15.30;71.40;;;;;;4978451;28;20039;-68
2021/05/15 10:53:28;;;;;;;17.67;9.93;;;15.60;71.90;;;;;;4976476;28;20112;-69
2021/05/15 10:56:00;;;;;;;;;;;16.40;71.90;;;;;;4978732;28;20041;-69
2021/05/15 10:58:38;;;;;;;17.00;9.85;;;16.50;69.10;;;;;;4978685;28;19960;-68
2021/05/15 11:01:16;;;;;;;19.02;9.57;;;16.60;70.00;;;;;;5003968;28;20579;-70
2021/05/15 11:03:42;;;;;;;16.88;10.27;;;16.20;68.70;;;;;;4983539;28;20418;-68
2021/05/15 11:06:30;;;;;;;16.88;10.13;;;15.50;70.00;;;;;;4976470;28;20019;-68
2021/05/15 11:09:02;;;;;;;15.32;10.25;;;15.30;70.70;;;;;;4977981;28;20034;-69
2021/05/15 11:11:42;;;;;;;18.65;10.02;;;14.90;71.10;;;;;;4974279;28;20015;-70
2021/05/15 11:14:26;;;;;;;20.55;10.25;;;15.00;73.30;;;;;;4981444;28;20520;-68
2021/05/15 11:17:12;;;;;;;19.25;10.48;;;15.20;73.50;;;;;;4978829;28;20034;-68
2021/05/15 11:20:06;;;;;;;19.85;10.75;;;15.10;72.90;;;;;;4974915;28;20121;-68
2021/05/15 11:22:47;;;;;;;17.45;10.60;;;15.20;75.30;;;;;;4982469;28;20109;-68
2021/05/15 11:25:13;;;;;;;18.17;10.38;;;15.00;73.70;;;;;;4983385;28;20098;-69
2021/05/15 11:27:51;;;;;;;18.63;11.15;;;15.00;76.30;;;;;;4982953;28;20034;-68
2021/05/15 11:30:41;;;;;;;20.38;11.02;;;14.80;77.40;;;;;;4983795;28;20412;-69
2021/05/15 11:33:08;;;;;;;20.30;11.57;;;14.40;77.10;;;;;;4992211;28;20082;-69
2021/05/15 11:35:44;;;;;;;22.15;12.27;;;14.30;78.20;;;;;;4984189;28;20052;-69
2021/05/15 11:38:13;;;;;;;19.67;12.88;;;14.20;80.80;;;;;;4984010;28;20030;-68
2021/05/15 11:40:41;;;;;;;23.38;12.40;;;14.30;80.60;;;;;;4984285;28;20030;-68
2021/05/15 11:43:07;;;;;;;21.75;12.57;;;14.50;81.80;;;;;;4977561;28;20038;-68
2021/05/15 11:45:34;;;;;;;18.95;12.32;;;14.60;81.70;;;;;;4984386;28;20076;-70
2021/05/15 11:48:24;;;;;;;21.05;11.68;;;14.70;81.00;;;;;;4978521;28;20508;-70
2021/05/15 11:51:06;;;;;;;18.77;10.95;;;14.90;78.60;;;;;;4975324;28;20145;-68
2021/05/15 11:53:37;;;;;;;21.13;11.82;;;15.10;78.10;;;;;;4977626;28;20042;-68
2021/05/15 11:56:14;;;;;;;16.77;11.10;;;15.80;74.60;;;;;;4973230;28;20121;-68
2021/05/15 11:58:48;;;;;;;16.48;10.70;;;17.00;73.80;;;;;;4982538;28;20057;-69
2021/05/15 12:01:20;;;;;;;17.92;10.93;;;17.70;72.10;;;;;;4981392;28;20034;-71
2021/05/15 12:03:47;;;;;;;16.23;10.18;;;17.90;67.40;;;;;;4965468;28;20117;-68
2021/05/15 12:06:14;;;;;;;19.10;10.30;;;18.50;65.50;;;;;;4979745;28;20022;-68
2021/05/15 12:08:40;;;;;;;15.70;9.60;;;18.30;67.30;;;;;;4975953;28;20037;-69
2021/05/15 12:11:06;;;;;;;17.35;9.95;;;19.40;68.10;;;;;;4974676;28;20026;-69
2021/05/15 12:13:32;;;;;;;13.65;8.70;;;20.10;61.40;;;;;;4976745;28;20098;-69
2021/05/15 12:16:00;;;;;;;17.15;9.75;;;20.10;62.20;;;;;;4978299;28;20557;-69
2021/05/15 12:18:26;;;;;;;15.48;9.50;;;20.50;59.60;;;;;;4982315;28;20049;-68
2021/05/15 12:20:52;;;;;;;14.52;8.73;;;20.50;61.60;;;;;;4976655;28;20757;-68
2021/05/15 12:23:20;;;;;;;15.18;9.35;;;19.40;63.10;;;;;;4974238;28;20034;-68
2021/05/15 12:25:58;;;;;;;15.60;9.68;;;18.70;63.50;;;;;;4976242;28;20065;-68
2021/05/15 12:28:32;;;;;;;16.13;9.57;;;18.00;64.70;;;;;;4973893;28;20026;-69
2021/05/15 12:31:00;;;;;;;14.38;9.60;;;17.60;64.60;;;;;;4979444;28;20417;-68
2021/05/15 12:33:28;;;;;;;16.65;9.80;;;17.50;64.90;;;;;;4976109;28;20041;-67
2021/05/15 12:36:03;;;;;;;14.23;8.98;;;17.60;69.70;;;;;;4979129;28;20614;-70
2021/05/15 12:38:30;;;;;;;17.67;9.88;;;18.90;66.60;;;;;;4975567;28;20138;-68